Time;durP1;ratioP1;P1;durP2;ratioP2;P2;SDS_P1;SDS_P2;PMS_P1;PMS_P2;Temp;Humidity;BMP_temperature;BMP_pressure;BME280_temperature;BME280_humidity;BME280_pressure;Samples;Min_cycle;Max_cycle;Signal;HPM_P1;HPM_P2
2023/04/07 00:02:18;;;;;;;22.13;7.70;;;12.20;99.90;;;;;;7286136;19;20196;-75
2023/04/07 00:04:44;;;;;;;23.60;7.97;;;12.10;99.90;;;;;;7284951;19;20251;-75
2023/04/07 00:07:10;;;;;;;25.23;8.43;;;12.10;99.90;;;;;;7284420;19;20724;-75
2023/04/07 00:09:36;;;;;;;27.70;8.83;;;12.10;99.90;;;;;;7286184;19;20197;-75
2023/04/07 00:12:01;;;;;;;22.00;8.37;;;12.10;99.90;;;;;;7284138;19;20228;-76
2023/04/07 00:14:28;;;;;;;24.57;8.23;;;12.10;99.90;;;;;;7307055;19;20187;-75
2023/04/07 00:16:53;;;;;;;23.17;8.27;;;12.00;99.90;;;;;;7286382;19;20716;-75
2023/04/07 00:19:19;;;;;;;22.73;9.13;;;12.00;99.90;;;;;;7285085;19;20250;-75
2023/04/07 00:21:45;;;;;;;27.90;9.03;;;12.00;99.90;;;;;;7286377;19;20216;-74
2023/04/07 00:24:11;;;;;;;22.17;8.47;;;11.90;99.90;;;;;;7286485;19;20187;-75
2023/04/07 00:26:37;;;;;;;25.07;8.97;;;11.90;99.90;;;;;;7285372;19;20211;-75
2023/04/07 00:29:02;;;;;;;20.73;8.20;;;12.00;99.90;;;;;;7284520;19;20295;-75
2023/04/07 00:31:28;;;;;;;23.70;9.60;;;11.90;99.90;;;;;;7296695;19;20633;-74
2023/04/07 00:33:56;;;;;;;26.30;8.67;;;12.00;99.90;;;;;;7303903;19;20192;-75
2023/04/07 00:36:22;;;;;;;21.60;8.43;;;12.00;99.90;;;;;;7285190;19;20274;-75
2023/04/07 00:38:48;;;;;;;26.10;8.93;;;11.90;99.90;;;;;;7283241;19;20261;-75
2023/04/07 00:41:13;;;;;;;26.13;9.57;;;11.90;99.90;;;;;;7284746;19;20197;-76
2023/04/07 00:43:39;;;;;;;25.37;9.10;;;12.00;99.90;;;;;;7285541;19;20196;-76
2023/04/07 00:46:05;;;;;;;22.93;8.77;;;12.00;99.90;;;;;;7283271;19;20196;-76
2023/04/07 00:48:31;;;;;;;22.90;8.60;;;12.00;99.90;;;;;;7284551;19;20196;-75
2023/04/07 00:50:56;;;;;;;29.20;10.03;;;12.00;99.90;;;;;;7305991;19;20189;-76
2023/04/07 00:53:22;;;;;;;23.77;9.07;;;12.10;99.90;;;;;;7283600;19;20200;-76
2023/04/07 00:55:48;;;;;;;21.33;8.90;;;12.10;99.90;;;;;;7284182;19;20232;-76
2023/04/07 00:58:14;;;;;;;23.97;9.70;;;12.10;99.90;;;;;;7284078;19;20195;-76
2023/04/07 01:01:07;;;;;;;19.43;9.67;;;12.00;99.90;;;;;;7283539;19;21185;-76
2023/04/07 01:03:43;;;;;;;24.03;9.63;;;12.00;99.90;;;;;;7181174;19;2004552;-76
2023/04/07 01:06:14;;;;;;;22.03;10.00;;;11.90;99.90;;;;;;7283996;19;20651;-76
2023/04/07 01:08:50;;;;;;;23.23;10.33;;;11.80;99.90;;;;;;7283773;19;20206;-76
2023/04/07 01:11:24;;;;;;;21.37;8.93;;;11.80;99.90;;;;;;7283446;19;20815;-76
2023/04/07 01:13:52;;;;;;;16.90;8.97;;;11.80;99.90;;;;;;7283258;19;20185;-76
2023/04/07 01:16:47;;;;;;;21.57;9.20;;;11.70;99.90;;;;;;7180226;19;2004632;-76
2023/04/07 01:19:25;;;;;;;20.70;9.07;;;11.70;99.90;;;;;;7282581;19;20198;-76
2023/04/07 01:21:57;;;;;;;22.40;9.27;;;11.60;99.90;;;;;;7283015;19;20194;-76
2023/04/07 01:24:57;;;;;;;20.80;9.03;;;11.60;99.90;;;;;;7283428;19;20198;-76
2023/04/07 01:27:41;;;;;;;21.50;9.30;;;11.60;99.90;;;;;;7180152;19;2004520;-76
2023/04/07 01:30:11;;;;;;;21.73;8.97;;;11.70;99.90;;;;;;7181260;19;2004626;-76
2023/04/07 01:32:39;;;;;;;20.47;9.53;;;11.70;99.90;;;;;;7282927;19;20213;-75
2023/04/07 01:35:09;;;;;;;19.33;9.63;;;11.60;99.90;;;;;;7282406;19;20194;-76
2023/04/07 01:37:36;;;;;;;19.97;9.20;;;11.70;99.90;;;;;;7282779;19;20270;-76
2023/04/07 01:40:04;;;;;;;20.80;9.97;;;11.60;99.90;;;;;;7281381;19;20203;-75
2023/04/07 01:42:32;;;;;;;20.47;9.30;;;11.60;99.90;;;;;;7284006;19;20221;-75
2023/04/07 01:44:59;;;;;;;22.23;10.10;;;11.60;99.90;;;;;;7305161;19;20285;-76
2023/04/07 01:47:29;;;;;;;19.77;9.60;;;11.60;99.90;;;;;;7281971;19;20182;-76
2023/04/07 01:49:57;;;;;;;18.93;9.53;;;11.60;99.90;;;;;;7283725;19;20920;-76
2023/04/07 01:52:25;;;;;;;18.27;9.77;;;11.70;99.90;;;;;;7282227;19;20651;-76
2023/04/07 01:54:53;;;;;;;18.70;9.60;;;11.70;99.90;;;;;;7280898;19;20195;-76
2023/04/07 01:57:18;;;;;;;19.77;9.40;;;11.70;99.90;;;;;;7281894;19;20604;-76
2023/04/07 01:59:46;;;;;;;16.63;8.83;;;11.60;99.90;;;;;;7281865;19;20210;-75
2023/04/07 02:02:13;;;;;;;18.30;9.60;;;11.50;99.90;;;;;;7280392;19;20203;-75
2023/04/07 02:04:55;;;;;;;20.20;9.40;;;11.50;99.90;;;;;;7281024;19;20183;-76
2023/04/07 02:07:52;;;;;;;16.37;9.17;;;11.50;99.90;;;;;;7281702;19;20272;-76
2023/04/07 02:10:22;;;;;;;20.93;9.17;;;11.50;99.90;;;;;;7179568;19;2004719;-76
2023/04/07 02:12:51;;;;;;;17.10;9.10;;;11.50;99.90;;;;;;7280274;19;20203;-76
2023/04/07 02:15:18;;;;;;;15.73;8.90;;;11.50;99.90;;;;;;7282065;19;20722;-76
2023/04/07 02:17:48;;;;;;;19.20;8.90;;;11.50;99.90;;;;;;7281238;19;20199;-76
2023/04/07 02:20:16;;;;;;;15.87;8.73;;;11.50;99.90;;;;;;7281737;19;20191;-75
2023/04/07 02:22:43;;;;;;;18.27;8.77;;;11.40;99.90;;;;;;7280806;19;20263;-75
2023/04/07 02:25:27;;;;;;;16.53;9.07;;;11.40;99.90;;;;;;7281192;19;20530;-75
2023/04/07 02:27:55;;;;;;;16.23;8.37;;;11.40;99.90;;;;;;7281102;19;20190;-76
2023/04/07 02:30:21;;;;;;;15.93;7.80;;;11.40;99.90;;;;;;7281215;19;20253;-75
2023/04/07 02:32:47;;;;;;;16.60;8.27;;;11.30;99.90;;;;;;7281545;19;20199;-75
2023/04/07 02:35:14;;;;;;;17.33;8.03;;;11.20;99.90;;;;;;7288953;19;20661;-76
2023/04/07 02:37:40;;;;;;;15.97;8.20;;;11.20;99.90;;;;;;7287024;19;20199;-75
2023/04/07 02:40:06;;;;;;;15.87;7.20;;;11.30;99.90;;;;;;7288182;19;20542;-75
2023/04/07 02:42:32;;;;;;;16.53;7.60;;;11.30;99.90;;;;;;7289660;19;20182;-75
2023/04/07 02:44:58;;;;;;;20.27;7.43;;;11.30;99.90;;;;;;7309518;19;20213;-75
2023/04/07 02:47:24;;;;;;;12.87;7.37;;;11.20;99.90;;;;;;7287403;19;20680;-75
2023/04/07 02:49:50;;;;;;;15.70;7.93;;;11.20;99.90;;;;;;7287696;19;20939;-75
2023/04/07 02:52:16;;;;;;;15.20;7.43;;;11.20;99.90;;;;;;7286492;19;20190;-76
2023/04/07 02:54:42;;;;;;;14.13;6.90;;;11.20;99.90;;;;;;7286689;19;20206;-75
2023/04/07 02:57:09;;;;;;;15.63;7.27;;;11.10;99.90;;;;;;7284331;19;20190;-76
2023/04/07 02:59:35;;;;;;;15.13;8.53;;;11.00;99.90;;;;;;7287247;19;20198;-75
2023/04/07 03:02:01;;;;;;;16.60;8.50;;;11.10;99.90;;;;;;7283701;19;20218;-75
2023/04/07 03:04:31;;;;;;;16.47;8.47;;;11.20;99.90;;;;;;7284921;19;20190;-75
2023/04/07 03:06:58;;;;;;;16.53;9.07;;;11.20;99.90;;;;;;7304594;19;20211;-75
2023/04/07 03:09:26;;;;;;;15.20;8.60;;;11.10;99.90;;;;;;7310528;19;20182;-75
2023/04/07 03:11:52;;;;;;;17.00;8.40;;;11.10;99.90;;;;;;7286731;19;20209;-75
2023/04/07 03:14:18;;;;;;;14.80;8.70;;;11.10;99.90;;;;;;7285770;19;20237;-76
2023/04/07 03:16:47;;;;;;;15.40;8.70;;;11.10;99.90;;;;;;7285808;19;20650;-75
2023/04/07 03:19:15;;;;;;;15.87;8.07;;;11.10;99.90;;;;;;7284933;19;20183;-75
2023/04/07 03:21:43;;;;;;;15.73;8.07;;;11.10;99.90;;;;;;7286271;19;20246;-75
2023/04/07 03:24:09;;;;;;;17.67;8.77;;;11.10;99.90;;;;;;7287163;19;20187;-75
2023/04/07 03:26:36;;;;;;;18.17;8.30;;;11.10;99.90;;;;;;7285111;19;20223;-75
2023/04/07 03:29:03;;;;;;;15.53;8.30;;;11.10;99.90;;;;;;7286869;19;20191;-75
2023/04/07 03:31:30;;;;;;;17.07;8.53;;;11.10;99.90;;;;;;7289238;19;20197;-75
2023/04/07 03:33:56;;;;;;;14.53;8.33;;;11.00;99.90;;;;;;7305981;19;20210;-75
2023/04/07 03:36:23;;;;;;;13.17;7.53;;;11.00;99.90;;;;;;7284504;19;20788;-75
2023/04/07 03:38:49;;;;;;;14.00;7.60;;;11.00;99.90;;;;;;7284833;19;20661;-75
2023/04/07 03:41:16;;;;;;;17.97;7.40;;;11.10;99.90;;;;;;7286052;19;20190;-75
2023/04/07 03:43:42;;;;;;;13.37;6.67;;;11.10;99.90;;;;;;7285934;19;20200;-75
2023/04/07 03:46:09;;;;;;;15.73;6.97;;;11.10;99.90;;;;;;7286450;19;20186;-75
2023/04/07 03:48:35;;;;;;;18.23;7.07;;;11.10;99.90;;;;;;7283729;19;20284;-75
2023/04/07 03:51:09;;;;;;;15.50;6.23;;;11.10;99.90;;;;;;7286441;19;20721;-75
2023/04/07 03:53:35;;;;;;;13.73;7.00;;;11.10;99.90;;;;;;7284138;19;20190;-75
2023/04/07 03:56:11;;;;;;;12.10;6.83;;;11.20;99.90;;;;;;7285544;19;20269;-75
2023/04/07 03:58:47;;;;;;;13.67;6.80;;;11.20;99.90;;;;;;7285165;19;20652;-75
2023/04/07 04:01:20;;;;;;;16.93;6.80;;;11.20;99.90;;;;;;7285392;19;20184;-75
2023/04/07 04:03:49;;;;;;;13.03;6.70;;;11.20;99.90;;;;;;7285992;19;20201;-75
2023/04/07 04:06:21;;;;;;;13.17;6.13;;;11.20;99.90;;;;;;7284427;19;20613;-75
2023/04/07 04:08:47;;;;;;;14.30;6.30;;;11.20;99.90;;;;;;7285606;19;20191;-75
2023/04/07 04:11:14;;;;;;;13.67;6.73;;;11.10;99.90;;;;;;7285677;19;20726;-75
2023/04/07 04:13:47;;;;;;;11.13;6.20;;;11.00;99.90;;;;;;7284580;19;20194;-75
2023/04/07 04:16:12;;;;;;;13.67;6.70;;;11.00;99.90;;;;;;7286291;19;20187;-75
2023/04/07 04:18:39;;;;;;;14.57;6.67;;;11.10;99.90;;;;;;7284517;19;20186;-75
2023/04/07 04:21:07;;;;;;;13.23;7.00;;;11.10;99.90;;;;;;7284680;19;20186;-75
2023/04/07 04:23:33;;;;;;;15.13;6.87;;;11.10;99.90;;;;;;7284678;19;20194;-76
2023/04/07 04:26:02;;;;;;;13.63;7.37;;;11.20;99.90;;;;;;7297062;19;20177;-75
2023/04/07 04:28:30;;;;;;;14.77;6.77;;;11.20;99.90;;;;;;7296479;19;20186;-75
2023/04/07 04:30:56;;;;;;;14.97;6.77;;;11.20;99.90;;;;;;7307504;19;20200;-75
2023/04/07 04:33:22;;;;;;;16.70;6.90;;;11.20;99.90;;;;;;7284522;19;20184;-75
2023/04/07 04:35:53;;;;;;;14.73;7.13;;;11.20;99.90;;;;;;7284618;19;20178;-75
2023/04/07 04:38:20;;;;;;;14.37;6.73;;;11.20;99.90;;;;;;7284004;19;20255;-76
2023/04/07 04:40:52;;;;;;;13.30;6.90;;;11.20;99.90;;;;;;7283524;19;20317;-76
2023/04/07 04:43:24;;;;;;;17.00;7.60;;;11.20;99.90;;;;;;7285429;19;20182;-75
2023/04/07 04:45:49;;;;;;;16.57;7.77;;;11.20;99.90;;;;;;7282986;19;20251;-75
2023/04/07 04:48:17;;;;;;;15.73;8.13;;;11.20;99.90;;;;;;7283093;19;20188;-75
2023/04/07 04:50:43;;;;;;;16.43;7.80;;;11.30;99.90;;;;;;7285608;19;20244;-75
2023/04/07 04:53:11;;;;;;;16.17;7.60;;;11.20;99.90;;;;;;7282508;19;20679;-75
2023/04/07 04:55:50;;;;;;;15.97;8.77;;;11.20;99.90;;;;;;7281106;19;20933;-75
2023/04/07 04:58:20;;;;;;;14.60;9.10;;;11.30;99.90;;;;;;7283561;19;20280;-75
2023/04/07 05:00:49;;;;;;;20.40;9.97;;;11.30;99.90;;;;;;7284623;19;20770;-75
2023/04/07 05:03:15;;;;;;;15.47;9.37;;;11.20;99.90;;;;;;7283615;19;20198;-75
2023/04/07 05:05:47;;;;;;;19.27;10.63;;;11.20;99.90;;;;;;7281171;19;20720;-75
2023/04/07 05:08:15;;;;;;;17.93;10.10;;;11.10;99.90;;;;;;7284235;19;20299;-75
2023/04/07 05:10:41;;;;;;;18.27;10.53;;;11.20;99.90;;;;;;7284403;19;20182;-75
2023/04/07 05:13:12;;;;;;;22.87;11.37;;;11.20;99.90;;;;;;7283973;19;20190;-75
2023/04/07 05:15:40;;;;;;;21.73;11.17;;;11.20;99.90;;;;;;7284493;19;20193;-75
2023/04/07 05:18:10;;;;;;;21.23;12.03;;;11.20;99.90;;;;;;7282820;19;20216;-75
2023/04/07 05:20:35;;;;;;;23.60;12.33;;;11.30;99.90;;;;;;7283143;19;20187;-75
2023/04/07 05:23:01;;;;;;;21.00;11.63;;;11.30;99.90;;;;;;7283452;19;20230;-75
2023/04/07 05:25:31;;;;;;;20.20;11.73;;;11.20;99.90;;;;;;7283656;19;20191;-74
2023/04/07 05:28:01;;;;;;;24.17;12.70;;;11.10;99.90;;;;;;7282181;19;20237;-75
2023/04/07 05:30:27;;;;;;;19.93;11.70;;;11.00;99.90;;;;;;7305564;19;20187;-75
2023/04/07 05:32:53;;;;;;;25.63;11.90;;;11.00;99.90;;;;;;7282602;19;20201;-75
2023/04/07 05:35:34;;;;;;;23.27;12.97;;;10.90;99.90;;;;;;7181374;19;2004621;-75
2023/04/07 05:37:59;;;;;;;24.50;12.77;;;10.90;99.90;;;;;;7295381;19;20541;-74
2023/04/07 05:40:26;;;;;;;25.07;12.50;;;10.90;99.90;;;;;;7304595;19;20987;-76
2023/04/07 05:42:52;;;;;;;28.63;13.90;;;10.90;99.90;;;;;;7284989;19;20190;-75
2023/04/07 05:45:17;;;;;;;26.73;13.80;;;11.00;99.90;;;;;;7281856;19;20265;-75
2023/04/07 05:47:49;;;;;;;27.13;13.43;;;11.10;99.90;;;;;;7282413;19;20193;-75
2023/04/07 05:50:19;;;;;;;30.17;14.33;;;11.30;99.90;;;;;;7283560;19;20618;-75
2023/04/07 05:52:46;;;;;;;28.30;14.77;;;11.30;99.90;;;;;;7280725;19;20274;-75
2023/04/07 05:55:20;;;;;;;23.10;13.63;;;11.30;99.90;;;;;;7281442;19;20374;-75
2023/04/07 05:57:48;;;;;;;26.83;14.50;;;11.30;99.90;;;;;;7281730;19;20262;-75
2023/04/07 06:00:15;;;;;;;29.43;14.87;;;11.30;99.90;;;;;;7280431;19;20224;-74
2023/04/07 06:02:43;;;;;;;26.70;13.60;;;11.30;99.90;;;;;;7282586;19;20208;-76
2023/04/07 06:05:15;;;;;;;29.07;14.33;;;11.30;99.90;;;;;;7280949;19;20658;-76
2023/04/07 06:07:40;;;;;;;26.27;13.53;;;11.30;99.90;;;;;;7286281;19;20201;-75
2023/04/07 06:10:07;;;;;;;28.37;14.73;;;11.30;99.90;;;;;;7288592;19;20704;-76
2023/04/07 06:12:33;;;;;;;27.70;15.60;;;11.30;99.90;;;;;;7288225;19;20202;-76
2023/04/07 06:14:59;;;;;;;24.93;14.03;;;11.30;99.90;;;;;;7311812;19;20274;-75
2023/04/07 06:17:24;;;;;;;27.47;15.00;;;11.40;99.90;;;;;;7298343;19;20276;-75
2023/04/07 06:19:50;;;;;;;25.63;14.57;;;11.50;99.90;;;;;;7288253;19;20195;-75
2023/04/07 06:22:16;;;;;;;30.13;14.80;;;11.60;99.90;;;;;;7288468;19;20191;-75
2023/04/07 06:24:42;;;;;;;26.10;13.97;;;11.60;99.90;;;;;;7294368;19;20248;-76
2023/04/07 06:27:08;;;;;;;28.30;15.50;;;11.60;99.90;;;;;;7288917;19;20224;-76
2023/04/07 06:29:33;;;;;;;27.17;14.90;;;11.70;99.90;;;;;;7289017;19;20181;-76
2023/04/07 06:32:02;;;;;;;30.33;16.67;;;11.80;99.90;;;;;;7287719;19;20186;-75
2023/04/07 06:34:28;;;;;;;26.83;15.10;;;11.90;99.90;;;;;;7312011;19;20617;-77
2023/04/07 06:36:54;;;;;;;26.03;14.77;;;12.00;99.90;;;;;;7288820;19;20649;-78
2023/04/07 06:39:20;;;;;;;27.53;15.80;;;12.20;99.90;;;;;;7288755;19;20581;-76
2023/04/07 06:41:45;;;;;;;28.17;15.07;;;12.50;99.90;;;;;;7288153;19;20251;-77
2023/04/07 06:44:12;;;;;;;26.30;14.40;;;12.70;99.90;;;;;;7290139;19;20190;-77
2023/04/07 06:46:38;;;;;;;26.87;14.73;;;13.00;99.90;;;;;;7287005;19;20191;-76
2023/04/07 06:49:04;;;;;;;29.30;15.23;;;13.40;99.90;;;;;;7284443;19;20199;-77
2023/04/07 06:51:31;;;;;;;26.10;14.53;;;13.60;99.90;;;;;;7300245;19;20280;-77
2023/04/07 06:53:56;;;;;;;25.47;13.37;;;13.50;99.90;;;;;;7308700;19;20189;-77
2023/04/07 06:56:23;;;;;;;26.43;14.73;;;13.30;99.90;;;;;;7288853;19;20224;-77
2023/04/07 06:58:49;;;;;;;27.43;15.27;;;13.20;99.90;;;;;;7287038;19;20681;-77
2023/04/07 07:01:15;;;;;;;29.90;15.70;;;13.00;99.90;;;;;;7286957;19;20195;-77
2023/04/07 07:03:41;;;;;;;30.27;15.53;;;12.90;99.90;;;;;;7288117;19;20261;-77
2023/04/07 07:06:06;;;;;;;28.77;15.33;;;12.70;99.90;;;;;;7287897;19;20252;-77
2023/04/07 07:08:32;;;;;;;35.67;16.80;;;12.70;99.90;;;;;;7288689;19;20203;-76
2023/04/07 07:10:58;;;;;;;27.60;15.97;;;12.90;99.90;;;;;;7310066;19;20196;-77
2023/04/07 07:13:25;;;;;;;33.77;16.87;;;13.00;99.90;;;;;;7286850;19;20268;-77
2023/04/07 07:15:51;;;;;;;31.17;16.17;;;12.80;99.90;;;;;;7288846;19;20186;-77
2023/04/07 07:18:18;;;;;;;30.73;16.47;;;12.50;99.90;;;;;;7289279;19;20192;-77
2023/04/07 07:20:43;;;;;;;39.07;17.60;;;12.60;99.90;;;;;;7286137;19;20196;-77
2023/04/07 07:23:09;;;;;;;33.73;18.20;;;12.60;99.90;;;;;;7289027;19;20674;-77
2023/04/07 07:25:35;;;;;;;32.93;17.07;;;12.40;99.90;;;;;;7288023;19;20197;-77
2023/04/07 07:28:01;;;;;;;35.53;17.67;;;12.30;99.90;;;;;;7288618;19;20747;-76
2023/04/07 07:30:27;;;;;;;35.57;17.70;;;12.40;99.90;;;;;;7311770;19;20191;-77
2023/04/07 07:32:54;;;;;;;33.87;15.40;;;12.30;99.90;;;;;;7288306;19;20185;-77
2023/04/07 07:35:20;;;;;;;27.43;15.00;;;12.20;99.90;;;;;;7286094;19;20248;-76
2023/04/07 07:37:46;;;;;;;32.17;13.93;;;12.10;99.90;;;;;;7286362;19;20190;-76
2023/04/07 07:40:12;;;;;;;33.17;14.63;;;11.60;99.90;;;;;;7286024;19;20703;-77
2023/04/07 07:42:38;;;;;;;34.97;17.67;;;11.20;99.90;;;;;;7287263;19;20273;-77
2023/04/07 07:45:04;;;;;;;28.60;13.63;;;11.10;99.90;;;;;;7286986;19;20190;-77
2023/04/07 07:47:31;;;;;;;27.93;13.40;;;11.00;99.90;;;;;;7298715;19;20262;-77
2023/04/07 07:49:56;;;;;;;31.37;14.37;;;10.90;99.90;;;;;;7310198;19;20633;-77
2023/04/07 07:52:22;;;;;;;22.53;12.53;;;11.00;99.90;;;;;;7287220;19;20212;-77
2023/04/07 07:54:49;;;;;;;23.93;12.57;;;11.10;99.90;;;;;;7287592;19;20720;-77
2023/04/07 07:57:15;;;;;;;25.00;13.17;;;11.00;99.90;;;;;;7286871;19;20253;-78
2023/04/07 07:59:41;;;;;;;24.57;13.27;;;10.70;99.90;;;;;;7286732;19;20192;-78
2023/04/07 08:02:07;;;;;;;24.43;10.80;;;10.60;99.90;;;;;;7285558;19;20794;-78
2023/04/07 08:04:35;;;;;;;18.37;9.60;;;10.60;99.90;;;;;;7287478;19;20195;-77
2023/04/07 08:07:00;;;;;;;21.07;10.00;;;10.30;99.90;;;;;;7293574;19;20747;-77
2023/04/07 08:09:26;;;;;;;23.03;10.90;;;10.30;99.90;;;;;;7309853;19;20212;-78
2023/04/07 08:11:52;;;;;;;19.97;10.37;;;10.50;99.90;;;;;;7287287;19;20188;-77
2023/04/07 08:14:18;;;;;;;24.47;10.73;;;10.80;99.90;;;;;;7286834;19;20586;-78
2023/04/07 08:16:44;;;;;;;23.93;10.73;;;11.00;99.90;;;;;;7288126;19;20204;-78
2023/04/07 08:19:10;;;;;;;21.90;10.53;;;11.10;99.90;;;;;;7287665;19;20192;-78
2023/04/07 08:21:36;;;;;;;20.47;10.63;;;11.10;99.90;;;;;;7285830;19;20192;-78
2023/04/07 08:24:02;;;;;;;23.40;10.27;;;11.30;99.90;;;;;;7283561;19;20199;-79
2023/04/07 08:26:28;;;;;;;22.57;9.97;;;11.50;99.90;;;;;;7307099;19;20189;-77
2023/04/07 08:28:54;;;;;;;22.80;9.50;;;11.60;99.90;;;;;;7285145;19;20189;-77
2023/04/07 08:31:20;;;;;;;21.07;9.87;;;11.50;99.90;;;;;;7284010;19;20221;-76
2023/04/07 08:33:46;;;;;;;23.83;10.70;;;11.50;99.90;;;;;;7285248;19;20648;-79
2023/04/07 08:36:12;;;;;;;22.00;8.70;;;11.60;99.90;;;;;;7286458;19;20193;-81
2023/04/07 08:38:37;;;;;;;20.20;8.40;;;11.50;99.90;;;;;;7287680;19;20277;-81
2023/04/07 08:41:09;;;;;;;16.13;7.40;;;11.50;99.90;;;;;;7285747;19;20256;-90
2023/04/07 08:43:36;;;;;;;15.80;6.93;;;11.70;99.90;;;;;;7286366;19;20193;-74
2023/04/07 08:46:02;;;;;;;16.70;6.80;;;11.90;99.90;;;;;;7284865;19;20573;-75
2023/04/07 08:48:33;;;;;;;13.97;6.17;;;12.00;99.90;;;;;;7304415;19;20194;-74
2023/04/07 08:51:05;;;;;;;17.63;6.33;;;12.00;99.90;;;;;;7286880;19;20202;-74
2023/04/07 08:53:42;;;;;;;17.33;6.73;;;12.00;99.90;;;;;;7268967;19;20199;-74
2023/04/07 08:56:11;;;;;;;15.53;7.07;;;12.10;99.90;;;;;;7284345;19;20208;-74
2023/04/07 08:58:37;;;;;;;14.83;7.10;;;12.10;99.90;;;;;;7279540;19;20189;-74
2023/04/07 09:01:07;;;;;;;16.07;7.17;;;12.00;99.90;;;;;;7283311;19;20203;-75
2023/04/07 09:03:33;;;;;;;17.83;7.03;;;12.20;99.90;;;;;;7283407;19;20191;-75
2023/04/07 09:06:00;;;;;;;19.60;8.27;;;12.40;99.90;;;;;;7306910;19;20181;-75
2023/04/07 09:08:26;;;;;;;16.70;7.77;;;12.60;99.90;;;;;;7283687;19;20273;-74
2023/04/07 09:10:53;;;;;;;21.57;7.67;;;12.60;99.90;;;;;;7284536;19;20206;-75
2023/04/07 09:13:19;;;;;;;22.90;8.30;;;12.80;99.90;;;;;;7282308;19;20184;-76
2023/04/07 09:15:45;;;;;;;15.90;7.77;;;12.80;99.90;;;;;;7283368;19;20191;-75
2023/04/07 09:18:11;;;;;;;21.17;8.23;;;12.90;99.90;;;;;;7284301;19;20206;-74
2023/04/07 09:20:59;;;;;;;17.27;6.90;;;13.00;99.90;;;;;;7282579;19;20696;-76
2023/04/07 09:23:37;;;;;;;14.47;6.97;;;13.60;99.90;;;;;;7283827;19;20191;-75
2023/04/07 09:26:21;;;;;;;17.50;7.70;;;13.90;99.90;;;;;;7261360;19;20258;-74
2023/04/07 09:28:54;;;;;;;17.40;7.67;;;14.20;99.90;;;;;;7284010;19;20184;-75
2023/04/07 09:31:46;;;;;;;12.57;6.47;;;14.30;99.90;;;;;;7284378;19;20205;-75
2023/04/07 09:34:31;;;;;;;15.07;6.10;;;14.70;99.90;;;;;;7182285;19;2004531;-75
2023/04/07 09:36:57;;;;;;;12.73;5.53;;;14.50;99.90;;;;;;7283896;19;20211;-76
2023/04/07 09:39:24;;;;;;;17.37;6.13;;;14.50;99.90;;;;;;7283037;19;20256;-76
2023/04/07 09:41:50;;;;;;;10.07;4.27;;;14.80;99.90;;;;;;7280494;19;20177;-76
2023/04/07 09:44:20;;;;;;;12.93;4.70;;;15.10;99.90;;;;;;7283393;19;20652;-76
2023/04/07 09:46:53;;;;;;;11.83;4.87;;;14.90;99.90;;;;;;7281796;19;20669;-75
2023/04/07 09:49:20;;;;;;;10.17;4.60;;;15.40;99.90;;;;;;7283587;19;20193;-76
2023/04/07 09:52:06;;;;;;;14.57;6.23;;;16.00;99.90;;;;;;7284154;19;20245;-76
2023/04/07 09:54:40;;;;;;;36.77;17.40;;;16.40;99.90;;;;;;7260011;19;20227;-76
2023/04/07 09:57:08;;;;;;;18.33;8.60;;;16.60;99.90;;;;;;7281635;19;20183;-76
2023/04/07 09:59:36;;;;;;;12.33;5.50;;;16.70;99.90;;;;;;7281798;19;20191;-76
2023/04/07 10:02:03;;;;;;;7.87;3.40;;;16.70;99.90;;;;;;7282522;19;20202;-76
2023/04/07 10:04:29;;;;;;;10.57;3.03;;;15.90;99.90;;;;;;7305807;19;20633;-76
2023/04/07 10:06:56;;;;;;;6.83;1.90;;;15.80;99.90;;;;;;7283001;19;20180;-75
2023/04/07 10:09:24;;;;;;;6.10;2.53;;;16.00;99.90;;;;;;7282398;19;20189;-75
2023/04/07 10:11:51;;;;;;;9.13;2.13;;;16.40;99.90;;;;;;7279619;19;20193;-75
2023/04/07 10:14:18;;;;;;;7.40;2.00;;;16.20;99.90;;;;;;7280741;19;20279;-80
2023/04/07 10:16:45;;;;;;;8.07;2.57;;;17.00;99.90;;;;;;7282756;19;20202;-76
2023/04/07 10:19:12;;;;;;;9.43;2.40;;;17.50;99.90;;;;;;7282524;19;20185;-76
2023/04/07 10:21:41;;;;;;;8.33;1.57;;;19.40;99.90;;;;;;7283237;19;20189;-76
2023/04/07 10:24:25;;;;;;;7.47;2.10;;;22.20;99.90;;;;;;7284212;19;20188;-76
2023/04/07 10:26:55;;;;;;;6.87;1.93;;;23.00;99.90;;;;;;7282899;19;20184;-77
2023/04/07 10:29:23;;;;;;;5.73;1.50;;;21.90;99.90;;;;;;7282616;19;20180;-77
2023/04/07 10:31:50;;;;;;;10.17;4.43;;;20.80;99.90;;;;;;7282873;19;20187;-76
2023/04/07 10:34:17;;;;;;;12.13;4.73;;;20.00;99.90;;;;;;7282354;19;20287;-77
2023/04/07 10:37:12;;;;;;;9.80;5.00;;;19.20;99.90;;;;;;7283517;19;20193;-77
2023/04/07 10:39:38;;;;;;;11.50;5.30;;;18.10;99.90;;;;;;7180066;19;2004701;-77
2023/04/07 10:42:03;;;;;;;13.93;5.07;;;17.40;99.90;;;;;;7281383;19;20215;-76
2023/04/07 10:44:41;;;;;;;13.47;5.07;;;16.70;99.90;;;;;;7305426;19;20718;-77
2023/04/07 10:47:08;;;;;;;13.40;5.47;;;15.90;99.90;;;;;;7179979;19;2004452;-76
2023/04/07 10:49:34;;;;;;;11.47;5.23;;;15.40;99.90;;;;;;7283055;19;20194;-76
2023/04/07 10:52:12;;;;;;;11.87;4.27;;;14.90;99.90;;;;;;7303004;19;20271;-76
2023/04/07 10:54:41;;;;;;;9.30;3.93;;;14.30;99.90;;;;;;7179710;19;2004500;-77
2023/04/07 10:57:09;;;;;;;10.93;4.40;;;13.80;99.90;;;;;;7288108;19;20643;-77
2023/04/07 10:59:37;;;;;;;14.40;4.43;;;13.40;99.90;;;;;;7288068;19;20192;-78
2023/04/07 11:02:29;;;;;;;12.77;3.80;;;13.30;99.90;;;;;;7288277;19;20187;-77
2023/04/07 11:04:55;;;;;;;11.60;3.70;;;13.30;99.90;;;;;;7289464;19;20198;-78
2023/04/07 11:07:49;;;;;;;12.77;4.27;;;13.30;99.90;;;;;;7287240;19;20197;-77
2023/04/07 11:10:15;;;;;;;8.77;2.93;;;13.40;99.90;;;;;;7187818;19;2004559;-78
2023/04/07 11:12:42;;;;;;;9.37;3.23;;;13.50;99.90;;;;;;7289502;19;20196;-78
2023/04/07 11:15:21;;;;;;;9.80;3.20;;;13.80;99.90;;;;;;7286826;19;20272;-78
2023/04/07 11:18:19;;;;;;;13.57;3.50;;;14.00;99.90;;;;;;7289416;19;20197;-80
2023/04/07 11:20:47;;;;;;;8.07;3.50;;;14.20;99.90;;;;;;7186524;19;2005024;-80
2023/04/07 11:23:15;;;;;;;10.27;3.57;;;14.80;99.90;;;;;;7289668;19;20207;-79
2023/04/07 11:25:45;;;;;;;10.30;3.33;;;15.60;99.90;;;;;;7289405;19;20191;-80
2023/04/07 11:28:12;;;;;;;7.80;2.87;;;16.80;99.90;;;;;;7287987;19;20218;-80
2023/04/07 11:30:43;;;;;;;10.50;2.73;;;18.40;99.90;;;;;;7289721;19;20643;-78
2023/04/07 11:33:13;;;;;;;11.63;3.00;;;20.40;99.90;;;;;;7288380;19;20191;-78
2023/04/07 11:35:50;;;;;;;9.03;2.90;;;20.90;99.90;;;;;;7288420;19;20183;-78
2023/04/07 11:38:17;;;;;;;10.70;2.93;;;21.20;99.90;;;;;;7287962;19;20192;-79
2023/04/07 11:40:43;;;;;;;10.33;2.70;;;21.10;99.90;;;;;;7288261;19;20201;-78
2023/04/07 11:43:18;;;;;;;8.00;2.43;;;20.10;99.90;;;;;;7288273;19;20193;-78
2023/04/07 11:45:44;;;;;;;9.90;3.37;;;19.20;99.90;;;;;;7288738;19;20192;-79
2023/04/07 11:48:29;;;;;;;8.80;3.70;;;18.40;99.90;;;;;;7286794;19;20188;-79
2023/04/07 11:50:55;;;;;;;9.87;4.20;;;17.90;99.90;;;;;;7289691;19;20192;-78
2023/04/07 11:53:32;;;;;;;10.80;3.33;;;17.50;99.90;;;;;;7285677;19;20244;-78
2023/04/07 11:56:03;;;;;;;9.10;4.37;;;17.00;99.90;;;;;;7289680;19;20188;-78
2023/04/07 11:58:29;;;;;;;11.70;4.00;;;15.60;99.90;;;;;;7287621;19;20190;-78
2023/04/07 12:00:56;;;;;;;11.13;3.90;;;15.10;99.90;;;;;;7287499;19;20181;-79
2023/04/07 12:03:22;;;;;;;9.93;4.20;;;15.00;99.90;;;;;;7288102;19;20221;-78
2023/04/07 12:05:48;;;;;;;12.03;3.70;;;15.00;99.90;;;;;;7286536;19;20653;-79
2023/04/07 12:08:18;;;;;;;10.80;4.10;;;14.70;99.90;;;;;;7286885;19;20185;-79
2023/04/07 12:10:44;;;;;;;11.43;4.60;;;14.80;99.90;;;;;;7288496;19;20191;-78
2023/04/07 12:13:12;;;;;;;12.13;3.97;;;15.10;99.90;;;;;;7288299;19;20198;-78
2023/04/07 12:15:38;;;;;;;14.63;4.63;;;15.30;99.90;;;;;;7288505;19;20212;-79
2023/04/07 12:18:04;;;;;;;12.33;4.03;;;15.10;99.90;;;;;;7287343;19;20656;-78
2023/04/07 12:20:30;;;;;;;12.67;4.20;;;15.10;99.90;;;;;;7309395;19;20747;-78
2023/04/07 12:22:57;;;;;;;12.40;3.77;;;15.00;99.90;;;;;;7287176;19;20711;-79
2023/04/07 12:25:23;;;;;;;12.20;4.00;;;15.40;99.90;;;;;;7287650;19;20207;-79
2023/04/07 12:27:49;;;;;;;8.83;3.73;;;15.70;99.90;;;;;;7286305;19;20190;-78
2023/04/07 12:30:15;;;;;;;11.03;3.87;;;15.80;99.90;;;;;;7287834;19;20554;-78
2023/04/07 12:32:41;;;;;;;12.00;4.07;;;15.50;99.90;;;;;;7287285;19;20669;-78
2023/04/07 12:35:07;;;;;;;16.07;3.80;;;15.30;99.90;;;;;;7286384;19;20648;-78
2023/04/07 12:37:32;;;;;;;13.97;2.43;;;14.90;99.90;;;;;;7287104;19;20187;-77
2023/04/07 12:39:59;;;;;;;10.70;2.10;;;14.70;99.90;;;;;;7307593;19;20649;-78
2023/04/07 12:42:25;;;;;;;12.17;2.03;;;14.50;99.90;;;;;;7286793;19;20182;-78